createdAt,value
2023-02-14T00:01:10.421Z,34.72
2023-02-14T00:02:12.649Z,35.05
2023-02-14T00:03:15.012Z,37.10
2023-02-14T00:04:18.538Z,38.03
2023-02-14T00:05:20.877Z,38.13
2023-02-14T00:06:23.139Z,36.03
2023-02-14T00:07:25.349Z,36.05
2023-02-14T00:08:27.590Z,42.42
2023-02-14T00:09:29.987Z,41.67
2023-02-14T00:10:32.212Z,37.40
2023-02-14T00:11:34.617Z,37.95
2023-02-14T00:12:36.823Z,43.72
2023-02-14T00:13:39.306Z,64.07
2023-02-14T00:14:59.755Z,72.88
2023-02-14T00:16:02.069Z,52.40
2023-02-14T00:17:04.433Z,50.97
2023-02-14T00:18:06.889Z,36.30
2023-02-14T00:19:12.134Z,36.65
2023-02-14T00:20:14.520Z,38.13
2023-02-14T00:21:16.764Z,40.35
2023-02-14T00:22:19.018Z,38.85
2023-02-14T00:23:21.218Z,42.97
2023-02-14T00:24:25.697Z,37.08
2023-02-14T00:25:27.900Z,36.45
2023-02-14T00:26:30.137Z,37.35
2023-02-14T00:27:32.429Z,38.65
2023-02-14T00:28:37.122Z,38.45
2023-02-14T00:29:39.348Z,41.85
2023-02-14T00:30:41.568Z,40.83
2023-02-14T00:31:45.193Z,44.35
2023-02-14T00:32:47.442Z,41.95
2023-02-14T00:33:49.680Z,39.63
2023-02-14T00:34:51.887Z,40.15
2023-02-14T00:35:54.248Z,39.85
2023-02-14T00:36:56.544Z,42.08
2023-02-14T00:40:16.168Z,38.97
2023-02-14T00:41:21.305Z,40.30
2023-02-14T00:42:23.809Z,40.83
2023-02-14T00:43:26.172Z,39.28
2023-02-14T00:44:28.631Z,37.83
2023-02-14T00:45:30.857Z,40.25
2023-02-14T00:46:34.343Z,38.78
2023-02-14T00:47:36.770Z,40.80
2023-02-14T00:48:39.089Z,39.92
2023-02-14T00:49:41.422Z,40.33
2023-02-14T00:50:45.754Z,40.30
2023-02-14T00:51:48.040Z,41.38
2023-02-14T00:52:50.311Z,37.38
2023-02-14T00:53:53.009Z,38.30
2023-02-14T00:54:56.084Z,39.85
2023-02-14T00:55:58.359Z,38.08
2023-02-14T00:57:01.038Z,41.90
2023-02-14T00:58:04.426Z,41.20
2023-02-14T00:59:06.671Z,41.05
2023-02-14T01:00:09.437Z,36.90
2023-02-14T01:01:12.427Z,41.13
2023-02-14T01:02:14.682Z,39.30
2023-02-14T01:03:16.864Z,37.90
2023-02-14T01:04:19.078Z,37.33
2023-02-14T01:05:21.555Z,44.25
2023-02-14T01:06:23.739Z,41.65
2023-02-14T01:07:26.065Z,39.03
2023-02-14T01:08:28.380Z,42.00
2023-02-14T01:09:31.458Z,38.70
2023-02-14T01:10:37.642Z,39.85
2023-02-14T01:11:40.449Z,39.72
2023-02-14T01:12:43.768Z,42.20
2023-02-14T01:13:47.246Z,38.15
2023-02-14T01:14:49.708Z,41.40
2023-02-14T01:18:41.995Z,39.10
2023-02-14T01:19:45.274Z,38.25
2023-02-14T01:20:47.541Z,43.20
2023-02-14T01:42:44.648Z,39.63
2023-02-14T01:44:02.009Z,39.78
2023-02-14T01:45:18.545Z,35.03
2023-02-14T01:46:22.903Z,35.40
2023-02-14T01:47:28.789Z,41.78
2023-02-14T01:48:31.063Z,39.67
2023-02-14T01:49:37.851Z,45.22
2023-02-14T01:50:45.100Z,37.33
2023-02-14T01:51:55.804Z,38.65
2023-02-14T01:53:02.902Z,39.15
2023-02-14T01:54:08.195Z,37.97
2023-02-14T01:55:15.496Z,41.00
2023-02-14T01:56:25.254Z,36.75
2023-02-14T01:57:39.819Z,39.53
2023-02-14T01:58:45.540Z,39.42
2023-02-14T01:59:55.667Z,40.20
2023-02-14T02:02:11.801Z,41.30
2023-02-14T02:03:15.919Z,38.70
2023-02-14T02:04:23.878Z,44.75
2023-02-14T02:05:26.887Z,40.95
2023-02-14T02:06:36.317Z,40.25
2023-02-14T02:07:41.777Z,42.45
2023-02-14T02:08:54.643Z,40.80
2023-02-14T02:10:00.609Z,43.10
2023-02-14T02:11:03.144Z,44.00
2023-02-14T02:12:05.380Z,43.22
2023-02-14T02:13:14.077Z,42.75
2023-02-14T02:14:19.148Z,40.70
2023-02-14T02:15:26.437Z,41.05
2023-02-14T02:16:50.874Z,47.47
2023-02-14T02:18:16.969Z,45.25
2023-02-14T02:20:02.969Z,47.33
2023-02-14T02:21:36.621Z,45.28
2023-02-14T02:22:41.384Z,44.10
2023-02-14T02:24:07.148Z,45.47
2023-02-14T02:25:34.643Z,47.60
2023-02-14T02:26:57.940Z,42.70
2023-02-14T02:28:18.616Z,44.55
2023-02-14T02:29:58.186Z,43.03
2023-02-14T02:31:06.117Z,44.60
2023-02-14T02:32:26.566Z,46.20
2023-02-14T02:34:08.135Z,47.55
2023-02-14T02:35:20.662Z,50.80
2023-02-14T02:37:51.159Z,46.35
2023-02-14T02:38:59.332Z,49.17
2023-02-14T02:40:13.390Z,46.20
2023-02-14T02:41:38.101Z,48.95
2023-02-14T02:42:40.244Z,51.03
2023-02-14T02:44:03.438Z,48.20
2023-02-14T02:46:05.981Z,46.60
2023-02-14T02:47:41.746Z,46.13
2023-02-14T02:48:55.446Z,48.22
2023-02-14T02:50:39.509Z,52.75
2023-02-14T02:52:09.553Z,49.05
2023-02-14T02:53:30.032Z,49.67
2023-02-14T02:54:44.101Z,48.13
2023-02-14T02:56:14.220Z,51.10
2023-02-14T02:57:25.982Z,47.78
2023-02-14T02:59:00.572Z,48.03
2023-02-14T03:00:07.369Z,51.45
2023-02-14T03:01:17.335Z,55.22
2023-02-14T03:02:28.313Z,58.05
2023-02-14T03:03:51.660Z,57.70
2023-02-14T03:05:02.182Z,52.75
2023-02-14T03:06:04.717Z,56.17
2023-02-14T03:07:26.530Z,57.75
2023-02-14T03:08:28.848Z,54.30
2023-02-14T03:09:31.088Z,60.58
2023-02-14T03:10:37.973Z,56.92
2023-02-14T03:11:52.919Z,54.42
2023-02-14T03:13:21.701Z,55.20
2023-02-14T03:14:39.215Z,58.65
2023-02-14T03:16:02.448Z,59.58
2023-02-14T03:17:15.494Z,55.03
2023-02-14T03:18:57.709Z,59.42
2023-02-14T03:20:31.033Z,54.88
2023-02-14T03:23:04.605Z,54.38
2023-02-14T03:24:30.984Z,58.88
2023-02-14T03:25:56.004Z,59.30
2023-02-14T03:27:15.204Z,59.13
2023-02-14T03:28:17.372Z,60.95
2023-02-14T03:29:35.418Z,58.65
2023-02-14T03:31:15.898Z,59.03
2023-02-14T03:32:27.746Z,64.15
2023-02-14T03:33:36.799Z,59.10
2023-02-14T03:34:51.743Z,62.72
2023-02-14T03:36:06.921Z,58.90
2023-02-14T03:37:14.608Z,62.42
2023-02-14T03:38:26.840Z,66.38
2023-02-14T03:40:12.031Z,65.53
2023-02-14T03:41:22.315Z,62.33
2023-02-14T03:42:30.614Z,61.88
2023-02-14T03:44:02.739Z,68.32
2023-02-14T03:45:09.377Z,64.63
2023-02-14T03:46:18.119Z,60.88
2023-02-14T03:47:24.456Z,68.50
2023-02-14T03:48:28.914Z,60.10
2023-02-14T03:49:36.048Z,64.43
2023-02-14T03:50:41.616Z,67.65
2023-02-14T03:51:48.198Z,73.85
2023-02-14T03:52:53.392Z,72.43
2023-02-14T03:53:58.382Z,69.53
2023-02-14T03:55:04.892Z,73.18
2023-02-14T03:56:30.061Z,72.55
2023-02-14T03:58:08.701Z,70.72
2023-02-14T03:59:16.936Z,76.22
2023-02-14T04:00:19.642Z,70.10
2023-02-14T04:01:32.943Z,79.05
2023-02-14T04:02:40.915Z,78.90
2023-02-14T04:03:44.339Z,74.70
2023-02-14T04:04:49.565Z,74.65
2023-02-14T04:05:52.249Z,83.45
2023-02-14T04:06:55.117Z,73.40
2023-02-14T04:07:58.529Z,78.50
2023-02-14T04:09:00.763Z,78.95
2023-02-14T04:10:03.104Z,83.35
2023-02-14T04:11:06.296Z,79.20
2023-02-14T04:12:09.319Z,79.15
2023-02-14T04:13:11.507Z,81.32
2023-02-14T04:14:14.032Z,86.18
2023-02-14T04:15:17.039Z,88.70
2023-02-14T04:16:19.305Z,75.10
2023-02-14T04:17:40.036Z,84.88
2023-02-14T04:19:01.073Z,85.78
2023-02-14T04:20:03.470Z,90.57
2023-02-14T04:21:05.999Z,85.35
2023-02-14T04:22:08.471Z,80.95
2023-02-14T04:23:10.672Z,93.53
2023-02-14T04:24:12.929Z,91.63
2023-02-14T04:25:15.279Z,84.53
2023-02-14T04:26:17.481Z,94.07
2023-02-14T04:27:19.711Z,101.72
2023-02-14T04:28:21.953Z,95.03
2023-02-14T04:29:24.186Z,106.15
2023-02-14T04:30:26.531Z,104.68
2023-02-14T04:31:28.936Z,103.32
2023-02-14T04:32:31.223Z,101.05
2023-02-14T04:33:34.143Z,106.80
2023-02-14T04:34:36.469Z,95.88
2023-02-14T04:35:38.737Z,118.20
2023-02-14T04:36:40.966Z,111.57
2023-02-14T04:37:43.188Z,115.50
2023-02-14T04:38:45.401Z,111.63
2023-02-14T04:39:47.764Z,105.13
2023-02-14T04:40:50.562Z,119.88
2023-02-14T04:41:52.746Z,118.70
2023-02-14T04:42:55.043Z,113.53
2023-02-14T04:43:57.250Z,118.32
2023-02-14T04:44:59.468Z,122.57
2023-02-14T04:46:01.706Z,124.10
2023-02-14T04:47:04.973Z,122.78
2023-02-14T04:48:07.225Z,116.25
2023-02-14T04:49:09.479Z,121.93
2023-02-14T04:50:12.510Z,111.90
2023-02-14T04:51:14.813Z,126.05
2023-02-14T04:52:17.035Z,138.75
2023-02-14T04:53:19.463Z,132.10
2023-02-14T04:54:21.800Z,123.95
2023-02-14T04:55:24.277Z,128.95
2023-02-14T04:56:27.053Z,120.90
2023-02-14T04:57:29.273Z,125.78
2023-02-14T04:58:31.496Z,122.10
2023-02-14T04:59:33.757Z,121.00
2023-02-14T05:00:36.293Z,112.82
2023-02-14T05:01:38.593Z,131.15
2023-02-14T05:02:40.790Z,127.60
2023-02-14T05:03:43.012Z,137.38
2023-02-14T05:04:45.314Z,142.07
2023-02-14T05:05:47.586Z,137.10
2023-02-14T05:06:49.844Z,144.40
2023-02-14T05:07:52.074Z,138.30
2023-02-14T05:08:54.929Z,138.25
2023-02-14T05:09:57.186Z,113.13
2023-02-14T05:10:59.823Z,149.45
2023-02-14T05:12:02.212Z,122.80
2023-02-14T05:13:04.454Z,157.48
2023-02-14T05:14:06.742Z,172.85
2023-02-14T05:15:09.428Z,175.15
2023-02-14T05:16:11.694Z,157.07
2023-02-14T05:17:13.915Z,164.32
2023-02-14T05:18:16.090Z,160.52
2023-02-14T05:19:18.315Z,202.10
2023-02-14T05:20:20.644Z,168.63
2023-02-14T05:21:23.045Z,163.50
2023-02-14T05:22:25.288Z,173.55
2023-02-14T05:23:27.586Z,187.63
2023-02-14T05:24:29.787Z,182.45
2023-02-14T05:25:32.111Z,158.95
2023-02-14T05:26:34.423Z,189.95
2023-02-14T05:27:36.658Z,173.25
2023-02-14T05:28:40.850Z,159.55
2023-02-14T05:29:43.078Z,174.00
2023-02-14T05:30:45.815Z,202.10
2023-02-14T05:31:48.360Z,204.40
2023-02-14T05:32:50.677Z,197.38
2023-02-14T05:33:52.948Z,198.65
2023-02-14T05:34:55.185Z,194.70
2023-02-14T05:36:02.592Z,198.85
2023-02-14T05:37:05.041Z,199.48
2023-02-14T05:38:07.320Z,167.38
2023-02-14T05:39:09.593Z,157.07
2023-02-14T05:40:13.837Z,147.20
2023-02-14T05:41:16.046Z,209.00
2023-02-14T05:42:18.486Z,190.63
2023-02-14T05:43:21.480Z,160.07
2023-02-14T05:44:23.925Z,155.55
2023-02-14T05:45:26.276Z,133.00
2023-02-14T05:46:28.619Z,178.32
2023-02-14T05:47:30.882Z,162.50
2023-02-14T05:48:33.994Z,164.18
2023-02-14T05:49:36.512Z,176.70
2023-02-14T05:50:38.812Z,176.50
2023-02-14T05:51:41.024Z,173.23
2023-02-14T05:52:43.655Z,191.25
2023-02-14T05:53:45.888Z,176.95
2023-02-14T05:54:48.144Z,150.30
2023-02-14T05:55:50.436Z,209.40
2023-02-14T05:56:52.673Z,188.60
2023-02-14T05:57:54.884Z,181.55
2023-02-14T05:58:59.963Z,136.10
2023-02-14T06:00:05.408Z,135.20
2023-02-14T06:02:16.919Z,188.70
2023-02-14T06:03:19.149Z,159.63
2023-02-14T06:04:21.419Z,168.70
2023-02-14T06:05:23.768Z,193.88
2023-02-14T06:06:26.052Z,198.55
2023-02-14T06:07:28.317Z,200.20
2023-02-14T06:08:30.584Z,168.13
2023-02-14T06:09:33.127Z,184.15
2023-02-14T06:10:35.302Z,119.80
2023-02-14T06:11:37.533Z,170.27
2023-02-14T06:12:39.720Z,159.23
2023-02-14T06:13:41.904Z,159.82
2023-02-14T06:14:45.053Z,157.80
2023-02-14T06:15:47.391Z,196.38
2023-02-14T06:16:49.851Z,166.88
2023-02-14T06:17:56.518Z,179.00
2023-02-14T06:18:58.742Z,167.10
2023-02-14T06:20:01.008Z,160.80
2023-02-14T06:21:03.567Z,170.57
2023-02-14T06:22:05.894Z,175.18
2023-02-14T06:23:08.141Z,179.82
2023-02-14T06:24:10.370Z,148.93
2023-02-14T06:25:12.781Z,167.07
2023-02-14T06:26:15.137Z,167.48
2023-02-14T06:27:17.425Z,185.23
2023-02-14T06:28:19.715Z,151.07
2023-02-14T06:29:21.958Z,146.85
2023-02-14T06:30:24.868Z,163.40
2023-02-14T06:31:27.461Z,174.13
2023-02-14T06:32:29.713Z,180.88
2023-02-14T06:33:31.921Z,191.40
2023-02-14T06:34:34.503Z,159.73
2023-02-14T06:35:36.706Z,160.68
2023-02-14T06:36:38.892Z,136.55
2023-02-14T06:37:42.166Z,159.45
2023-02-14T06:38:44.705Z,145.35
2023-02-14T06:39:47.083Z,154.98
2023-02-14T06:40:49.318Z,173.00
2023-02-14T06:41:51.664Z,136.38
2023-02-14T06:42:53.980Z,133.70
2023-02-14T06:43:56.287Z,171.20
2023-02-14T06:44:58.529Z,158.57
2023-02-14T06:46:01.403Z,150.10
2023-02-14T06:47:04.450Z,165.50
2023-02-14T06:48:06.736Z,150.63
2023-02-14T06:49:10.148Z,154.75
2023-02-14T06:50:12.385Z,140.73
2023-02-14T06:51:14.724Z,148.10
2023-02-14T06:52:16.923Z,138.20
2023-02-14T06:53:20.039Z,157.30
2023-02-14T06:54:22.270Z,128.20
2023-02-14T06:55:24.514Z,127.35
2023-02-14T06:56:26.767Z,127.18
2023-02-14T06:57:29.048Z,125.65
2023-02-14T06:58:31.555Z,131.93
2023-02-14T06:59:33.767Z,127.75
2023-02-14T07:00:36.022Z,125.70
2023-02-14T07:01:38.322Z,131.65
2023-02-14T07:02:41.072Z,120.75
2023-02-14T07:03:43.535Z,108.30
2023-02-14T07:04:45.722Z,106.88
2023-02-14T07:05:47.927Z,108.03
2023-02-14T07:06:50.158Z,108.22
2023-02-14T07:07:52.351Z,116.38
2023-02-14T07:08:54.673Z,123.88
2023-02-14T07:09:56.898Z,111.13
2023-02-14T07:10:59.476Z,99.45
2023-02-14T07:12:01.919Z,114.95
2023-02-14T07:13:04.769Z,101.70
2023-02-14T07:14:07.016Z,112.78
2023-02-14T07:15:11.383Z,115.60
2023-02-14T07:16:13.864Z,103.53
2023-02-14T07:17:16.104Z,110.40
2023-02-14T07:18:18.292Z,109.03
2023-02-14T07:19:20.466Z,115.93
2023-02-14T07:20:22.988Z,102.18
2023-02-14T07:21:25.378Z,89.75
2023-02-14T07:22:29.502Z,89.25
2023-02-14T07:23:33.002Z,88.80
2023-02-14T07:24:35.417Z,87.03
2023-02-14T07:25:38.241Z,84.88
2023-02-14T07:26:40.431Z,88.55
2023-02-14T07:27:43.081Z,89.60
2023-02-14T07:28:45.971Z,74.20
2023-02-14T07:29:48.179Z,72.20
2023-02-14T07:30:50.501Z,80.28
2023-02-14T07:31:52.902Z,74.53
2023-02-14T07:32:55.154Z,85.00
2023-02-14T07:34:00.721Z,74.63
2023-02-14T07:35:03.053Z,74.47
2023-02-14T07:36:07.080Z,72.03
2023-02-14T07:37:09.275Z,68.03
2023-02-14T07:38:11.480Z,77.95
2023-02-14T07:39:13.992Z,64.25
2023-02-14T07:40:16.230Z,76.90
2023-02-14T07:41:18.456Z,62.40
2023-02-14T07:42:20.622Z,61.38
2023-02-14T07:43:22.885Z,67.75
2023-02-14T07:44:25.144Z,68.45
2023-02-14T07:45:27.422Z,74.07
2023-02-14T07:46:29.721Z,70.20
2023-02-14T07:47:31.973Z,70.60
2023-02-14T07:48:34.710Z,66.30
2023-02-14T07:49:37.154Z,67.82
2023-02-14T07:50:39.421Z,74.63
2023-02-14T07:51:41.651Z,67.78
2023-02-14T07:52:44.356Z,68.07
2023-02-14T07:53:46.540Z,67.30
2023-02-14T07:54:48.714Z,68.85
2023-02-14T07:55:54.480Z,68.82
2023-02-14T07:56:57.332Z,72.18
2023-02-14T07:57:59.642Z,69.40
2023-02-14T07:59:01.885Z,73.05
2023-02-14T08:00:05.787Z,90.40
2023-02-14T08:01:14.454Z,69.70
2023-02-14T08:02:16.701Z,77.28
2023-02-14T08:03:18.903Z,70.07
2023-02-14T08:04:21.399Z,69.18
2023-02-14T08:05:23.690Z,72.57
2023-02-14T08:06:27.861Z,74.45
2023-02-14T08:07:30.119Z,77.95
2023-02-14T08:08:32.530Z,86.07
2023-02-14T08:09:34.795Z,73.60
2023-02-14T08:10:37.185Z,79.68
2023-02-14T08:11:57.685Z,71.82
2023-02-14T08:13:00.225Z,65.30
2023-02-14T08:14:03.809Z,59.50
2023-02-14T08:15:24.845Z,65.90
2023-02-14T08:16:27.134Z,63.25
2023-02-14T08:17:29.360Z,69.15
2023-02-14T08:18:36.996Z,62.78
2023-02-14T08:19:39.773Z,66.80
2023-02-14T08:20:42.108Z,76.32
2023-02-14T08:21:44.281Z,59.10
2023-02-14T08:22:46.518Z,62.85
2023-02-14T08:23:48.824Z,64.35
2023-02-14T08:24:50.957Z,62.05
2023-02-14T08:25:53.170Z,60.25
2023-02-14T08:26:55.410Z,59.00
2023-02-14T08:27:57.614Z,59.78
2023-02-14T08:29:01.686Z,58.70
2023-02-14T08:30:04.065Z,54.13
2023-02-14T08:31:06.789Z,58.55
2023-02-14T08:32:09.129Z,53.63
2023-02-14T08:33:11.379Z,50.40
2023-02-14T08:34:14.695Z,54.75
2023-02-14T08:35:16.937Z,53.50
2023-02-14T08:36:19.278Z,53.40
2023-02-14T08:37:21.569Z,48.65
2023-02-14T08:38:24.155Z,47.15
2023-02-14T08:39:26.322Z,75.85
2023-02-14T08:40:28.608Z,47.70
2023-02-14T08:41:31.123Z,53.25
2023-02-14T08:42:33.322Z,46.13
2023-02-14T08:43:35.576Z,48.35
2023-02-14T08:44:37.765Z,43.70
2023-02-14T08:45:40.087Z,44.33
2023-02-14T08:46:42.493Z,45.30
2023-02-14T08:47:44.882Z,46.78
2023-02-14T08:48:47.155Z,43.95
2023-02-14T08:49:50.117Z,40.80
2023-02-14T08:50:52.342Z,41.25
2023-02-14T08:51:55.112Z,43.40
2023-02-14T08:52:57.500Z,39.92
2023-02-14T08:53:59.721Z,41.83
2023-02-14T08:55:02.739Z,56.33
2023-02-14T08:56:07.318Z,49.35
2023-02-14T08:57:09.480Z,51.45
2023-02-14T08:58:11.777Z,51.33
2023-02-14T08:59:14.027Z,36.28
2023-02-14T09:00:16.621Z,40.10
2023-02-14T09:01:19.090Z,35.53
2023-02-14T09:02:21.358Z,35.92
2023-02-14T09:03:23.793Z,36.72
2023-02-14T09:04:26.085Z,36.45
2023-02-14T09:05:28.437Z,40.92
2023-02-14T09:06:30.862Z,56.30
2023-02-14T09:07:33.168Z,35.38
2023-02-14T09:08:38.940Z,38.42
2023-02-14T09:09:41.250Z,35.22
2023-02-14T09:10:43.492Z,35.25
2023-02-14T09:11:45.714Z,35.60
2023-02-14T09:12:48.137Z,36.00
2023-02-14T09:13:53.159Z,35.88
2023-02-14T09:14:55.367Z,46.88
2023-02-14T09:15:57.610Z,33.72
2023-02-14T09:17:01.394Z,32.58
2023-02-14T09:18:03.759Z,31.63
2023-02-14T09:19:06.010Z,35.40
2023-02-14T09:20:10.441Z,35.90
2023-02-14T09:21:19.965Z,34.55
2023-02-14T09:22:22.384Z,36.63
2023-02-14T09:23:24.577Z,38.60
2023-02-14T09:24:27.628Z,36.80
2023-02-14T09:25:29.845Z,32.25
2023-02-14T09:26:32.580Z,31.58
2023-02-14T09:27:35.254Z,31.25
2023-02-14T09:28:38.246Z,42.25
2023-02-14T09:29:40.438Z,30.38
2023-02-14T09:30:42.653Z,35.17
2023-02-14T09:31:44.976Z,34.15
2023-02-14T09:32:47.304Z,32.50
2023-02-14T09:34:09.397Z,33.60
2023-02-14T09:35:30.624Z,35.50
2023-02-14T09:36:51.574Z,36.85
2023-02-14T09:38:13.219Z,33.33
2023-02-14T09:39:15.405Z,32.30
2023-02-14T09:40:20.080Z,34.67
2023-02-14T09:41:31.108Z,32.67
2023-02-14T09:43:02.123Z,33.55
2023-02-14T09:44:08.728Z,34.55
2023-02-14T09:45:18.903Z,31.63
2023-02-14T09:46:24.017Z,33.38
2023-02-14T09:47:49.449Z,33.85
2023-02-14T09:48:53.237Z,33.20
2023-02-14T09:49:55.848Z,33.20
2023-02-14T09:51:03.477Z,32.65
2023-02-14T09:52:10.733Z,30.80
2023-02-14T09:53:24.998Z,28.55
2023-02-14T09:54:29.414Z,31.33
2023-02-14T09:55:43.235Z,33.63
2023-02-14T09:57:23.589Z,32.28
2023-02-14T09:58:55.912Z,30.67
2023-02-14T10:00:20.535Z,28.98
2023-02-14T10:01:27.880Z,29.75
2023-02-14T10:03:08.345Z,32.88
2023-02-14T10:04:33.678Z,32.58
2023-02-14T10:05:43.847Z,34.13
2023-02-14T10:06:58.962Z,34.53
2023-02-14T10:08:25.947Z,35.45
2023-02-14T10:09:58.788Z,32.92
2023-02-14T10:11:07.645Z,29.15
2023-02-14T10:12:33.472Z,30.58
2023-02-14T10:14:01.725Z,30.77
2023-02-14T10:15:20.811Z,35.80
2023-02-14T10:16:27.402Z,30.58
2023-02-14T10:17:42.243Z,31.85
2023-02-14T10:19:01.604Z,42.00
2023-02-14T10:20:15.949Z,34.10
2023-02-14T10:21:25.617Z,36.05
2023-02-14T10:22:39.630Z,60.53
2023-02-14T10:23:49.317Z,32.58
2023-02-14T10:25:01.742Z,55.83
2023-02-14T10:26:10.516Z,84.93
2023-02-14T10:27:30.861Z,42.10
2023-02-14T10:28:43.305Z,50.30
2023-02-14T10:31:01.535Z,54.15
2023-02-14T10:32:04.662Z,40.35
2023-02-14T10:33:18.076Z,34.97
2023-02-14T10:34:34.305Z,28.75
2023-02-14T10:35:51.479Z,31.25
2023-02-14T10:37:12.097Z,29.65
2023-02-14T10:38:43.722Z,31.60
2023-02-14T10:40:17.650Z,34.03
2023-02-14T10:41:43.869Z,27.63
2023-02-14T10:43:23.177Z,32.53
2023-02-14T10:44:45.988Z,33.88
2023-02-14T10:46:03.574Z,31.45
2023-02-14T10:47:26.423Z,30.25
2023-02-14T10:48:31.241Z,27.75
2023-02-14T10:50:04.308Z,28.33
2023-02-14T10:51:37.140Z,27.58
2023-02-14T10:52:59.295Z,30.85
2023-02-14T10:54:25.777Z,33.47
2023-02-14T10:55:49.386Z,38.70
2023-02-14T10:57:05.401Z,34.72
2023-02-14T10:58:14.016Z,35.45
2023-02-14T10:59:24.632Z,34.65
2023-02-14T11:00:33.268Z,31.80
2023-02-14T11:01:35.609Z,30.58
2023-02-14T11:02:42.816Z,30.42
2023-02-14T11:04:06.454Z,30.00
2023-02-14T11:05:29.965Z,28.48
2023-02-14T11:06:32.881Z,29.48
2023-02-14T11:07:35.100Z,26.70
2023-02-14T11:08:40.264Z,31.63
2023-02-14T11:09:42.709Z,30.02
2023-02-14T11:10:45.718Z,27.48
2023-02-14T11:11:54.776Z,30.10
2023-02-14T11:12:57.560Z,25.75
2023-02-14T11:13:59.750Z,26.83
2023-02-14T11:15:22.189Z,30.95
2023-02-14T11:16:35.731Z,26.42
2023-02-14T11:17:37.969Z,33.63
2023-02-14T11:18:41.254Z,34.72
2023-02-14T11:19:57.008Z,27.75
2023-02-14T11:21:04.096Z,29.13
2023-02-14T11:22:10.012Z,29.45
2023-02-14T11:23:20.366Z,26.58
2023-02-14T11:25:04.459Z,28.13
2023-02-14T11:26:31.460Z,37.05
2023-02-14T11:27:33.982Z,29.60
2023-02-14T11:28:41.009Z,28.42
2023-02-14T11:29:48.086Z,31.85
2023-02-14T11:30:51.671Z,27.63
2023-02-14T11:31:54.715Z,27.85
2023-02-14T11:32:57.496Z,27.73
2023-02-14T11:34:03.679Z,30.38
2023-02-14T11:35:34.279Z,29.05
2023-02-14T11:36:42.010Z,28.30
2023-02-14T11:37:50.908Z,28.60
2023-02-14T11:39:21.848Z,27.85
2023-02-14T11:40:44.468Z,29.60
2023-02-14T11:41:55.471Z,30.45
2023-02-14T11:43:19.074Z,31.23
2023-02-14T11:44:26.876Z,32.50
2023-02-14T11:45:37.861Z,32.08
2023-02-14T11:46:52.368Z,28.45
2023-02-14T11:48:19.871Z,31.65
2023-02-14T11:49:29.513Z,32.00
2023-02-14T11:50:32.184Z,30.15
2023-02-14T11:51:37.745Z,25.80
2023-02-14T11:52:50.900Z,29.65
2023-02-14T11:53:56.140Z,28.00
2023-02-14T11:54:59.168Z,29.05
2023-02-14T11:56:01.561Z,30.63
2023-02-14T11:57:11.946Z,30.98
2023-02-14T11:58:30.926Z,29.67
2023-02-14T11:59:40.899Z,29.25
2023-02-14T12:00:52.894Z,28.50
2023-02-14T12:01:57.947Z,32.08
2023-02-14T12:03:04.616Z,29.17
2023-02-14T12:04:22.773Z,29.02
2023-02-14T12:05:30.832Z,30.80
2023-02-14T12:06:36.227Z,29.73
2023-02-14T12:07:39.578Z,30.92
2023-02-14T12:08:43.112Z,32.28
2023-02-14T12:09:47.098Z,28.80
2023-02-14T12:11:02.666Z,29.45
2023-02-14T12:12:23.286Z,29.70
2023-02-14T12:13:26.205Z,27.20
2023-02-14T12:14:33.723Z,30.00
2023-02-14T12:15:43.230Z,32.20
2023-02-14T12:16:57.821Z,28.48
2023-02-14T12:18:08.959Z,31.50
2023-02-14T12:19:19.747Z,29.10
2023-02-14T12:20:59.652Z,32.72
2023-02-14T12:22:07.178Z,31.17
2023-02-14T12:23:24.104Z,32.88
2023-02-14T12:24:33.812Z,29.13
2023-02-14T12:25:44.232Z,33.33
2023-02-14T12:27:04.708Z,32.80
2023-02-14T12:28:14.891Z,30.98
2023-02-14T12:29:20.010Z,33.25
2023-02-14T12:30:24.224Z,30.98
2023-02-14T12:31:26.607Z,32.75
2023-02-14T12:32:32.017Z,34.42
2023-02-14T12:33:34.225Z,33.80
2023-02-14T12:34:36.469Z,32.08
2023-02-14T12:36:02.560Z,35.30
2023-02-14T12:37:17.784Z,33.38
2023-02-14T12:38:19.931Z,32.10
2023-02-14T12:39:43.844Z,31.95
2023-02-14T12:40:51.692Z,34.97
2023-02-14T12:42:16.891Z,33.08
2023-02-14T12:43:53.385Z,30.75
2023-02-14T12:45:17.359Z,31.83
2023-02-14T12:46:57.357Z,32.25
2023-02-14T12:48:19.845Z,34.78
2023-02-14T12:49:59.384Z,31.92
2023-02-14T12:51:14.705Z,29.67
2023-02-14T12:52:28.742Z,35.63
2023-02-14T12:53:39.813Z,33.40
2023-02-14T12:54:58.953Z,32.35
2023-02-14T12:56:46.883Z,33.38
2023-02-14T12:57:56.761Z,31.83
2023-02-14T12:59:23.138Z,33.85
2023-02-14T13:00:37.626Z,31.63
2023-02-14T13:02:07.907Z,33.03
2023-02-14T13:03:34.844Z,31.02
2023-02-14T13:05:04.506Z,33.72
2023-02-14T13:06:20.099Z,35.38
2023-02-14T13:08:00.626Z,31.42
2023-02-14T13:09:03.434Z,32.55
2023-02-14T13:10:19.191Z,33.90
2023-02-14T13:11:41.283Z,32.63
2023-02-14T13:13:07.427Z,32.47
2023-02-14T13:14:46.501Z,32.58
2023-02-14T13:15:59.461Z,32.78
2023-02-14T13:17:34.816Z,34.10
2023-02-14T13:18:40.202Z,30.30
2023-02-14T13:19:49.905Z,33.95
2023-02-14T13:21:01.429Z,31.88
2023-02-14T13:22:06.177Z,30.38
2023-02-14T13:23:24.924Z,32.15
2023-02-14T13:24:39.194Z,29.90
2023-02-14T13:25:49.834Z,31.83
2023-02-14T13:26:56.426Z,29.92
2023-02-14T13:28:06.497Z,30.85
2023-02-14T13:29:17.874Z,35.00
2023-02-14T13:30:27.630Z,33.77
2023-02-14T13:31:31.363Z,33.50
2023-02-14T13:32:40.491Z,32.30
2023-02-14T13:33:50.215Z,34.22
2023-02-14T13:34:53.293Z,33.78
2023-02-14T13:36:00.037Z,32.60
2023-02-14T13:37:06.722Z,31.23
2023-02-14T13:38:15.674Z,31.67
2023-02-14T13:39:31.255Z,33.38
2023-02-14T13:40:36.552Z,34.17
2023-02-14T13:41:41.948Z,31.98
2023-02-14T13:42:46.812Z,31.27
2023-02-14T13:43:56.437Z,32.55
2023-02-14T13:44:58.699Z,33.85
2023-02-14T13:46:00.970Z,34.63
2023-02-14T13:47:03.401Z,32.40
2023-02-14T13:48:06.731Z,35.25
2023-02-14T13:49:27.029Z,32.78
2023-02-14T13:50:29.340Z,36.88
2023-02-14T13:51:49.107Z,30.77
2023-02-14T13:52:51.533Z,32.47
2023-02-14T13:53:53.716Z,33.97
2023-02-14T13:55:02.865Z,34.38
2023-02-14T13:56:17.036Z,33.22
2023-02-14T13:57:31.515Z,34.10
2023-02-14T13:58:35.444Z,35.50
2023-02-14T13:59:37.682Z,32.47
2023-02-14T14:00:42.382Z,31.25
2023-02-14T14:01:50.115Z,31.02
2023-02-14T14:02:56.851Z,32.63
2023-02-14T14:04:02.552Z,34.97
2023-02-14T14:05:30.625Z,30.75
2023-02-14T14:07:13.582Z,31.55
2023-02-14T14:08:42.791Z,32.65
2023-02-14T14:09:45.460Z,31.63
2023-02-14T14:10:49.105Z,32.45
2023-02-14T14:11:51.755Z,34.50
2023-02-14T14:12:53.986Z,57.58
2023-02-14T14:14:01.591Z,34.53
2023-02-14T14:15:06.975Z,36.50
2023-02-14T14:16:27.854Z,34.40
2023-02-14T14:17:32.439Z,37.58
2023-02-14T14:18:41.627Z,37.65
2023-02-14T14:19:45.069Z,36.45
2023-02-14T14:20:49.108Z,49.83
2023-02-14T14:22:01.481Z,34.70
2023-02-14T14:24:26.211Z,37.25
2023-02-14T14:25:34.539Z,33.08
2023-02-14T14:26:41.843Z,32.70
2023-02-14T14:27:46.989Z,32.35
2023-02-14T14:28:49.641Z,32.35
2023-02-14T14:29:58.465Z,30.63
2023-02-14T14:31:01.056Z,71.40
2023-02-14T14:32:18.147Z,37.60
2023-02-14T14:33:32.814Z,32.53
2023-02-14T14:34:35.013Z,36.67
2023-02-14T14:35:37.273Z,43.95
2023-02-14T14:36:39.502Z,38.25
2023-02-14T14:37:52.628Z,33.00
2023-02-14T14:38:54.982Z,30.75
2023-02-14T14:39:59.363Z,31.55
2023-02-14T14:41:02.503Z,32.45
2023-02-14T14:42:07.405Z,35.33
2023-02-14T14:43:17.796Z,31.25
2023-02-14T14:44:20.310Z,31.75
2023-02-14T14:45:28.099Z,36.38
2023-02-14T14:46:31.244Z,32.53
2023-02-14T14:47:42.820Z,89.07
2023-02-14T14:48:51.372Z,44.45
2023-02-14T14:49:57.604Z,39.53
2023-02-14T14:51:00.581Z,35.50
2023-02-14T14:52:03.145Z,31.00
2023-02-14T14:53:09.382Z,34.20
2023-02-14T14:54:19.783Z,33.67
2023-02-14T14:55:26.405Z,30.13
2023-02-14T14:56:49.808Z,32.47
2023-02-14T14:57:54.916Z,34.97
2023-02-14T14:58:57.800Z,31.35
2023-02-14T15:00:17.365Z,32.95
2023-02-14T15:01:33.327Z,31.80
2023-02-14T15:02:35.600Z,32.47
2023-02-14T15:03:37.853Z,32.00
2023-02-14T15:04:40.161Z,35.83
2023-02-14T15:05:45.519Z,33.25
2023-02-14T15:06:48.659Z,35.20